createdAt,value
2019-03-20T00:02:22.592Z,5.60
2019-03-20T00:04:53.727Z,5.60
2019-03-20T00:07:24.952Z,5.60
2019-03-20T00:09:56.615Z,5.60
2019-03-20T00:12:27.758Z,5.60
2019-03-20T00:14:58.891Z,5.50
2019-03-20T00:17:30.036Z,5.50
2019-03-20T00:20:01.451Z,5.50
2019-03-20T00:22:32.359Z,5.50
2019-03-20T00:25:03.517Z,5.50
2019-03-20T00:27:34.924Z,5.50
2019-03-20T00:30:06.139Z,5.40
2019-03-20T00:32:37.364Z,5.40
2019-03-20T00:35:08.415Z,5.50
2019-03-20T00:37:39.627Z,5.40
2019-03-20T00:40:12.089Z,5.40
2019-03-20T00:42:43.304Z,5.50
2019-03-20T00:45:14.511Z,5.50
2019-03-20T00:47:45.731Z,5.50
2019-03-20T00:50:16.769Z,5.50
2019-03-20T00:52:48.143Z,5.50
2019-03-20T00:55:19.404Z,5.50
2019-03-20T00:57:50.624Z,5.50
2019-03-20T01:00:21.778Z,5.50
2019-03-20T01:02:53.071Z,5.50
2019-03-20T01:05:24.360Z,5.50
2019-03-20T01:07:55.585Z,5.50
2019-03-20T01:10:26.797Z,5.50
2019-03-20T01:12:57.702Z,5.50
2019-03-20T01:15:28.927Z,5.50
2019-03-20T01:18:00.071Z,5.50
2019-03-20T01:20:31.223Z,5.50
2019-03-20T01:23:02.355Z,5.60
2019-03-20T01:25:35.161Z,5.60
2019-03-20T01:28:06.522Z,5.60
2019-03-20T01:30:38.205Z,5.70
2019-03-20T01:33:10.138Z,5.70
2019-03-20T01:35:41.189Z,5.80
2019-03-20T01:38:12.176Z,5.80
2019-03-20T01:40:43.425Z,5.80
2019-03-20T01:43:14.407Z,5.80
2019-03-20T01:45:45.307Z,5.90
2019-03-20T01:48:16.542Z,5.90
2019-03-20T01:50:48.747Z,6.00
2019-03-20T01:53:19.971Z,5.90
2019-03-20T01:55:50.871Z,6.00
2019-03-20T01:58:22.740Z,6.00
2019-03-20T02:00:54.124Z,6.10
2019-03-20T02:03:25.616Z,6.20
2019-03-20T02:05:57.054Z,6.20
2019-03-20T02:08:28.208Z,6.30
2019-03-20T02:10:59.332Z,6.30
2019-03-20T02:13:30.479Z,6.30
2019-03-20T02:16:01.779Z,6.40
2019-03-20T02:18:32.947Z,6.30
2019-03-20T02:21:04.270Z,6.40
2019-03-20T02:23:35.450Z,6.40
2019-03-20T02:26:06.700Z,6.40
2019-03-20T02:28:37.600Z,6.50
2019-03-20T02:31:08.977Z,6.50
2019-03-20T02:33:40.443Z,6.40
2019-03-20T02:36:11.587Z,6.40
2019-03-20T02:38:42.819Z,6.40
2019-03-20T02:41:13.720Z,6.40
2019-03-20T02:43:44.624Z,6.40
2019-03-20T02:46:16.026Z,6.40
2019-03-20T02:48:47.194Z,6.40
2019-03-20T02:51:18.341Z,6.40
2019-03-20T02:53:49.510Z,6.50
2019-03-20T02:56:20.388Z,6.50
2019-03-20T02:58:51.311Z,6.50
2019-03-20T03:01:22.191Z,6.50
2019-03-20T03:03:53.397Z,6.50
2019-03-20T03:06:24.366Z,6.60
2019-03-20T03:08:55.624Z,6.60
2019-03-20T03:11:27.012Z,6.60
2019-03-20T03:13:58.167Z,6.70
2019-03-20T03:16:29.309Z,6.70
2019-03-20T03:19:00.461Z,6.70
2019-03-20T03:21:31.972Z,6.70
2019-03-20T03:24:02.880Z,6.80
2019-03-20T03:26:34.119Z,6.80
2019-03-20T03:29:05.105Z,6.80
2019-03-20T03:31:36.261Z,6.80
2019-03-20T03:34:07.628Z,6.90
2019-03-20T03:36:38.772Z,6.80
2019-03-20T03:39:09.918Z,6.90
2019-03-20T03:41:41.324Z,6.90
2019-03-20T03:44:12.558Z,6.90
2019-03-20T03:46:43.680Z,6.90
2019-03-20T03:49:14.842Z,7.00
2019-03-20T03:51:46.043Z,7.00
2019-03-20T03:54:16.953Z,7.00
2019-03-20T03:56:48.754Z,7.00
2019-03-20T03:59:20.744Z,7.00
2019-03-20T04:01:51.743Z,7.10
2019-03-20T04:04:22.703Z,7.10
2019-03-20T04:06:53.671Z,7.10
2019-03-20T04:09:24.867Z,7.10
2019-03-20T04:11:56.291Z,7.20
2019-03-20T04:14:27.455Z,7.20
2019-03-20T04:16:58.349Z,7.20
2019-03-20T04:19:29.322Z,7.30
2019-03-20T04:22:01.831Z,7.20
2019-03-20T04:24:32.729Z,7.20
2019-03-20T04:27:03.891Z,7.20
2019-03-20T04:29:35.109Z,7.20
2019-03-20T04:32:06.517Z,7.20
2019-03-20T04:34:37.664Z,7.20
2019-03-20T04:37:08.559Z,7.20
2019-03-20T04:39:39.467Z,7.20
2019-03-20T04:42:10.360Z,7.20
2019-03-20T04:44:41.271Z,7.20
2019-03-20T04:47:12.403Z,7.20
2019-03-20T04:49:43.692Z,7.20
2019-03-20T04:52:14.848Z,7.20
2019-03-20T04:54:46.283Z,7.20
2019-03-20T04:57:17.463Z,7.20
2019-03-20T04:59:48.623Z,7.20
2019-03-20T05:02:19.792Z,7.20
2019-03-20T05:04:50.695Z,7.20
2019-03-20T05:07:22.100Z,7.20
2019-03-20T05:09:53.247Z,7.20
2019-03-20T05:12:24.653Z,7.20
2019-03-20T05:14:55.804Z,7.30
2019-03-20T05:17:26.706Z,7.30
2019-03-20T05:19:57.847Z,7.30
2019-03-20T05:22:28.971Z,7.30
2019-03-20T05:25:00.333Z,7.30
2019-03-20T05:27:31.467Z,7.30
2019-03-20T05:30:02.859Z,7.30
2019-03-20T05:32:36.692Z,7.30
2019-03-20T05:35:09.609Z,7.30
2019-03-20T05:37:40.823Z,7.30
2019-03-20T05:40:12.924Z,7.30
2019-03-20T05:42:44.104Z,7.30
2019-03-20T05:45:15.512Z,7.30
2019-03-20T05:47:46.805Z,7.30
2019-03-20T05:50:18.101Z,7.30
2019-03-20T05:52:49.250Z,7.30
2019-03-20T05:55:20.627Z,7.30
2019-03-20T05:57:51.772Z,7.30
2019-03-20T06:00:23.367Z,7.30
2019-03-20T06:02:54.507Z,7.30
2019-03-20T06:05:27.211Z,7.30
2019-03-20T06:07:58.382Z,7.40
2019-03-20T06:10:32.635Z,7.40
2019-03-20T06:13:03.751Z,7.40
2019-03-20T06:15:34.642Z,7.40
2019-03-20T06:18:05.859Z,7.50
2019-03-20T06:20:36.907Z,7.50
2019-03-20T06:23:08.090Z,7.50
2019-03-20T06:25:39.235Z,7.50
2019-03-20T06:28:10.388Z,7.50
2019-03-20T06:30:41.378Z,7.50
2019-03-20T06:33:12.535Z,7.50
2019-03-20T06:35:43.691Z,7.60
2019-03-20T06:38:14.579Z,7.60
2019-03-20T06:40:45.735Z,7.60
2019-03-20T06:43:16.638Z,7.60
2019-03-20T06:45:47.535Z,7.60
2019-03-20T06:48:18.439Z,7.60
2019-03-20T06:50:49.591Z,7.70
2019-03-20T06:53:20.741Z,7.70
2019-03-20T06:55:51.965Z,7.70
2019-03-20T06:58:23.108Z,7.70
2019-03-20T07:01:21.428Z,7.80
2019-03-20T07:04:24.448Z,7.80
2019-03-20T07:07:18.703Z,7.80
2019-03-20T07:10:16.083Z,7.90
2019-03-20T07:12:47.518Z,7.90
2019-03-20T07:15:18.730Z,7.90
2019-03-20T07:17:49.863Z,7.90
2019-03-20T07:20:21.280Z,7.90
2019-03-20T07:22:52.467Z,8.00
2019-03-20T07:25:24.587Z,8.00
2019-03-20T07:27:55.743Z,8.00
2019-03-20T07:30:26.880Z,8.10
2019-03-20T07:32:58.292Z,8.10
2019-03-20T07:35:29.410Z,8.20
2019-03-20T07:38:00.576Z,8.20
2019-03-20T07:40:31.697Z,8.20
2019-03-20T07:43:08.724Z,8.30
2019-03-20T07:45:35.424Z,8.30
2019-03-20T07:48:06.327Z,8.30
2019-03-20T07:50:37.479Z,8.30
2019-03-20T07:53:08.887Z,8.40
2019-03-20T07:55:39.783Z,8.40
2019-03-20T07:58:10.928Z,8.50
2019-03-20T08:00:42.335Z,8.50
2019-03-20T08:03:13.797Z,8.50
2019-03-20T08:05:44.991Z,8.60
2019-03-20T08:08:16.203Z,8.60
2019-03-20T08:10:50.103Z,8.60
2019-03-20T08:13:21.011Z,8.60
2019-03-20T08:15:51.903Z,8.60
2019-03-20T08:18:24.426Z,8.70
2019-03-20T08:20:55.570Z,8.70
2019-03-20T08:23:26.706Z,8.80
2019-03-20T08:25:57.918Z,8.80
2019-03-20T08:28:29.372Z,8.80
2019-03-20T08:31:00.671Z,8.90
2019-03-20T08:33:31.588Z,8.90
2019-03-20T08:36:03.675Z,9.00
2019-03-20T08:38:34.815Z,9.00
2019-03-20T08:41:06.030Z,9.00
2019-03-20T08:43:37.411Z,9.10
2019-03-20T08:46:08.551Z,9.10
2019-03-20T08:48:39.684Z,9.10
2019-03-20T08:51:10.576Z,9.20
2019-03-20T08:53:41.722Z,9.20
2019-03-20T08:56:12.857Z,9.20
2019-03-20T08:58:43.985Z,9.30
2019-03-20T09:01:15.108Z,9.30
2019-03-20T09:03:46.491Z,9.40
2019-03-20T09:06:17.615Z,9.40
2019-03-20T09:08:48.763Z,9.50
2019-03-20T09:11:19.654Z,9.60
2019-03-20T09:13:51.012Z,9.60
2019-03-20T09:16:21.902Z,9.60
2019-03-20T09:18:52.803Z,9.70
2019-03-20T09:21:24.007Z,9.80
2019-03-20T09:23:55.147Z,9.80
2019-03-20T09:26:26.274Z,9.80
2019-03-20T09:28:57.183Z,9.80
2019-03-20T09:31:28.314Z,9.80
2019-03-20T09:33:59.480Z,9.80
2019-03-20T09:36:30.666Z,9.80
2019-03-20T09:39:01.568Z,9.80
2019-03-20T09:41:36.319Z,9.80
2019-03-20T09:44:07.475Z,9.80
2019-03-20T09:46:38.611Z,9.90
2019-03-20T09:49:09.821Z,9.90
2019-03-20T09:51:40.948Z,10.00
2019-03-20T09:54:12.088Z,10.00
2019-03-20T09:56:42.978Z,10.10
2019-03-20T09:59:14.126Z,10.20
2019-03-20T10:01:45.332Z,10.20
2019-03-20T10:04:16.552Z,10.20
2019-03-20T10:06:47.451Z,10.10
2019-03-20T10:09:18.873Z,10.10
2019-03-20T10:11:49.767Z,10.10
2019-03-20T10:14:21.180Z,10.10
2019-03-20T10:16:52.386Z,10.10
2019-03-20T10:19:23.856Z,10.10
2019-03-20T10:21:55.003Z,10.10
2019-03-20T10:24:26.162Z,10.20
2019-03-20T10:26:57.621Z,10.30
2019-03-20T10:29:28.760Z,10.30
2019-03-20T10:32:00.167Z,10.20
2019-03-20T10:34:39.209Z,10.30
2019-03-20T10:37:03.950Z,10.30
2019-03-20T10:39:34.863Z,10.40
2019-03-20T10:42:06.072Z,10.40
2019-03-20T10:44:37.255Z,10.50
2019-03-20T10:47:08.403Z,10.50
2019-03-20T10:49:39.307Z,10.50
2019-03-20T10:52:10.608Z,10.60
2019-03-20T10:54:41.763Z,10.50
2019-03-20T10:57:12.674Z,10.50
2019-03-20T10:59:43.835Z,10.50
2019-03-20T11:02:15.008Z,10.50
2019-03-20T11:04:46.168Z,10.60
2019-03-20T11:07:17.407Z,10.60
2019-03-20T11:09:48.559Z,10.60
2019-03-20T11:12:19.710Z,10.60
2019-03-20T11:14:50.623Z,10.60
2019-03-20T11:17:21.766Z,10.60
2019-03-20T11:19:53.201Z,10.70
2019-03-20T11:22:24.431Z,10.80
2019-03-20T11:24:55.598Z,10.90
2019-03-20T11:27:27.809Z,11.00
2019-03-20T11:29:59.928Z,11.10
2019-03-20T11:32:30.840Z,11.10
2019-03-20T11:35:02.005Z,11.20
2019-03-20T11:37:34.188Z,11.30
2019-03-20T11:40:07.961Z,11.40
2019-03-20T11:42:40.787Z,11.40
2019-03-20T11:45:12.388Z,11.30
2019-03-20T11:47:43.608Z,11.30
2019-03-20T11:50:23.143Z,11.30
2019-03-20T11:52:54.567Z,11.30
2019-03-20T11:55:26.867Z,11.30
2019-03-20T11:57:58.013Z,11.30
2019-03-20T12:00:29.340Z,11.30
2019-03-20T12:03:00.495Z,11.30
2019-03-20T12:05:31.711Z,11.30
2019-03-20T12:08:04.357Z,11.30
2019-03-20T12:10:35.734Z,11.30
2019-03-20T12:13:07.028Z,11.30
2019-03-20T12:15:38.197Z,11.20
2019-03-20T12:18:09.343Z,11.20
2019-03-20T12:20:40.571Z,11.20
2019-03-20T12:23:11.483Z,11.20
2019-03-20T12:25:42.734Z,11.10
2019-03-20T12:28:13.888Z,11.10
2019-03-20T12:30:45.039Z,11.10
2019-03-20T12:33:16.195Z,11.10
2019-03-20T12:35:47.578Z,11.20
2019-03-20T12:38:18.476Z,11.20
2019-03-20T12:40:49.706Z,11.30
2019-03-20T12:43:20.611Z,11.30
2019-03-20T12:45:51.803Z,11.30
2019-03-20T12:48:23.027Z,11.40
2019-03-20T12:50:54.201Z,11.40
2019-03-20T12:53:28.852Z,11.40
2019-03-20T12:56:00.001Z,11.40
2019-03-20T12:58:30.899Z,11.40
2019-03-20T13:01:01.807Z,11.40
2019-03-20T13:03:32.863Z,11.50
2019-03-20T13:06:04.109Z,11.50
2019-03-20T13:08:35.267Z,11.50
2019-03-20T13:11:06.585Z,11.50
2019-03-20T13:13:37.711Z,11.50
2019-03-20T13:16:09.405Z,11.50
2019-03-20T13:18:41.691Z,11.50
2019-03-20T13:21:13.238Z,11.50
2019-03-20T13:23:44.275Z,11.50
2019-03-20T13:26:15.440Z,11.50
2019-03-20T13:28:46.603Z,11.50
2019-03-20T13:31:19.484Z,11.50
2019-03-20T13:33:53.296Z,11.50
2019-03-20T13:36:24.443Z,11.50
2019-03-20T13:38:56.570Z,11.60
2019-03-20T13:41:27.935Z,11.70
2019-03-20T13:43:59.340Z,11.70
2019-03-20T13:46:30.511Z,11.70
2019-03-20T13:49:01.666Z,11.70
2019-03-20T13:51:32.893Z,11.70
2019-03-20T13:54:03.871Z,11.70
2019-03-20T13:56:35.019Z,11.70
2019-03-20T13:59:06.252Z,11.70
2019-03-20T14:01:37.399Z,11.80
2019-03-20T14:04:08.543Z,11.80
2019-03-20T14:06:39.711Z,11.80
2019-03-20T14:09:10.864Z,11.80
2019-03-20T14:11:42.028Z,11.90
2019-03-20T14:14:12.934Z,11.90
2019-03-20T14:16:44.322Z,12.00
2019-03-20T14:19:15.459Z,12.00
2019-03-20T14:21:46.879Z,11.90
2019-03-20T14:24:18.031Z,11.90
2019-03-20T14:26:49.043Z,11.90
2019-03-20T14:29:20.205Z,11.90
2019-03-20T14:31:51.260Z,11.90
2019-03-20T14:34:22.659Z,12.00
2019-03-20T14:36:54.998Z,12.00
2019-03-20T14:39:25.891Z,12.00
2019-03-20T14:41:57.109Z,12.00
2019-03-20T14:44:28.662Z,12.00
2019-03-20T14:46:59.843Z,12.00
2019-03-20T14:49:31.347Z,12.00
2019-03-20T14:52:04.234Z,11.90
2019-03-20T14:57:39.191Z,11.90
2019-03-20T15:00:14.097Z,11.90
2019-03-20T15:02:45.087Z,11.90
2019-03-20T15:05:16.573Z,11.90
2019-03-20T15:07:48.127Z,11.90
2019-03-20T15:10:20.203Z,11.90
2019-03-20T15:12:51.739Z,11.80
2019-03-20T15:15:32.459Z,11.80
2019-03-20T15:18:03.367Z,11.90
2019-03-20T15:20:34.584Z,11.90
2019-03-20T15:23:05.848Z,11.90
2019-03-20T15:25:37.067Z,11.90
2019-03-20T15:28:08.321Z,11.90
2019-03-20T15:30:39.299Z,12.00
2019-03-20T15:33:13.720Z,12.00
2019-03-20T15:35:45.104Z,12.00
2019-03-20T15:38:16.531Z,12.10
2019-03-20T15:40:55.828Z,12.10
2019-03-20T15:43:21.471Z,12.10
2019-03-20T15:45:52.366Z,12.10
2019-03-20T15:48:23.326Z,12.10
2019-03-20T15:50:54.806Z,12.00
2019-03-20T15:53:25.713Z,12.00
2019-03-20T15:55:56.871Z,12.00
2019-03-20T15:58:28.292Z,12.00
2019-03-20T16:00:59.440Z,12.10
2019-03-20T16:03:31.070Z,12.00
2019-03-20T16:06:02.214Z,12.00
2019-03-20T16:08:33.443Z,12.00
2019-03-20T16:11:06.911Z,12.00
2019-03-20T16:13:37.624Z,12.00
2019-03-20T16:16:08.771Z,12.00
2019-03-20T16:18:39.923Z,12.00
2019-03-20T16:21:10.819Z,12.00
2019-03-20T16:23:41.975Z,12.00
2019-03-20T16:26:12.859Z,12.00
2019-03-20T16:28:44.035Z,11.90
2019-03-20T16:31:14.927Z,11.90
2019-03-20T16:33:46.147Z,11.90
2019-03-20T16:36:17.370Z,11.90
2019-03-20T16:38:52.246Z,11.90
2019-03-20T16:41:23.539Z,11.90
2019-03-20T16:43:54.446Z,11.90
2019-03-20T16:46:25.659Z,11.90
2019-03-20T16:48:57.079Z,11.90
2019-03-20T16:51:28.293Z,11.90
2019-03-20T16:54:00.145Z,11.90
2019-03-20T16:56:31.130Z,11.90
2019-03-20T16:59:02.614Z,11.90
2019-03-20T17:01:33.586Z,11.90
2019-03-20T17:04:04.654Z,11.80
2019-03-20T17:06:35.783Z,11.80
2019-03-20T17:09:07.701Z,11.80
2019-03-20T17:11:39.267Z,11.80
2019-03-20T17:14:10.467Z,11.80
2019-03-20T17:16:42.692Z,11.80
2019-03-20T17:19:15.075Z,11.80
2019-03-20T17:21:46.276Z,11.80
2019-03-20T17:24:17.315Z,11.80
2019-03-20T17:26:48.903Z,11.80
2019-03-20T17:29:19.907Z,11.90
2019-03-20T17:31:50.914Z,11.80
2019-03-20T17:34:25.701Z,11.80
2019-03-20T17:36:56.603Z,11.80
2019-03-20T17:39:27.559Z,11.80
2019-03-20T17:41:58.692Z,11.80
2019-03-20T17:44:29.925Z,11.80
2019-03-20T17:47:02.279Z,11.80
2019-03-20T17:49:35.028Z,11.70
2019-03-20T17:52:06.085Z,11.80
2019-03-20T17:54:38.779Z,11.80
2019-03-20T17:57:12.123Z,11.80
2019-03-20T17:59:43.279Z,11.80
2019-03-20T18:02:23.650Z,11.80
2019-03-20T18:04:47.431Z,11.70
2019-03-20T18:07:18.528Z,11.70
2019-03-20T18:09:49.695Z,11.70
2019-03-20T18:12:21.508Z,11.70
2019-03-20T18:14:53.700Z,11.70
2019-03-20T18:17:24.791Z,11.80
2019-03-20T18:19:56.149Z,11.70
2019-03-20T18:22:27.725Z,11.70
2019-03-20T18:24:59.034Z,11.70
2019-03-20T18:27:30.881Z,11.70
2019-03-20T18:30:03.487Z,11.70
2019-03-20T18:32:34.883Z,11.70
2019-03-20T18:35:06.198Z,11.70
2019-03-20T18:37:37.344Z,11.70
2019-03-20T18:40:09.422Z,11.70
2019-03-20T18:42:41.011Z,11.70
2019-03-20T18:45:12.797Z,11.70
2019-03-20T18:47:44.373Z,11.60
2019-03-20T18:50:16.489Z,11.70
2019-03-20T18:52:47.664Z,11.60
2019-03-20T18:55:19.120Z,11.60
2019-03-20T18:57:50.422Z,11.60
2019-03-20T19:00:23.730Z,11.60
2019-03-20T19:02:55.923Z,11.60
2019-03-20T19:05:30.323Z,11.60
2019-03-20T19:08:01.517Z,11.60
2019-03-20T19:10:33.697Z,11.60
2019-03-20T19:13:05.191Z,11.60
2019-03-20T19:15:36.826Z,11.50
2019-03-20T19:18:08.185Z,11.50
2019-03-20T19:20:39.119Z,11.50
2019-03-20T19:23:10.024Z,11.50
2019-03-20T19:25:43.007Z,11.50
2019-03-20T19:28:14.386Z,11.50
2019-03-20T19:30:45.672Z,11.40
2019-03-20T19:33:16.890Z,11.40
2019-03-20T19:35:48.061Z,11.40
2019-03-20T19:38:19.466Z,11.40
2019-03-20T19:40:50.645Z,11.40
2019-03-20T19:43:22.814Z,11.40
2019-03-20T19:45:53.970Z,11.40
2019-03-20T19:48:25.147Z,11.40
2019-03-20T19:50:56.081Z,11.40
2019-03-20T19:53:27.287Z,11.50
2019-03-20T19:55:58.535Z,11.40
2019-03-20T19:58:29.708Z,11.40
2019-03-20T20:01:01.027Z,11.40
2019-03-20T20:03:31.940Z,11.40
2019-03-20T20:06:03.219Z,11.40
2019-03-20T20:08:35.640Z,11.40
2019-03-20T20:11:07.117Z,11.40
2019-03-20T20:13:38.468Z,11.40
2019-03-20T20:16:09.885Z,11.40
2019-03-20T20:18:40.846Z,11.30
2019-03-20T20:21:12.010Z,11.30
2019-03-20T20:23:44.536Z,11.30
2019-03-20T20:26:15.563Z,11.30
2019-03-20T20:28:46.986Z,11.30
2019-03-20T20:31:17.939Z,11.30
2019-03-20T20:33:48.883Z,11.30
2019-03-20T20:36:19.779Z,11.30
2019-03-20T20:38:51.152Z,11.30
2019-03-20T20:41:22.122Z,11.30
2019-03-20T20:43:53.031Z,11.20
2019-03-20T20:46:24.249Z,11.20
2019-03-20T20:48:55.635Z,11.20
2019-03-20T20:51:27.109Z,11.20
2019-03-20T20:53:58.054Z,11.20
2019-03-20T20:56:28.970Z,11.20
2019-03-20T20:59:00.207Z,11.20
2019-03-20T21:01:31.407Z,11.20
2019-03-20T21:04:02.607Z,11.20
2019-03-20T21:06:34.022Z,11.20
2019-03-20T21:09:08.055Z,11.20
2019-03-20T21:11:39.543Z,11.10
2019-03-20T21:14:10.695Z,11.10
2019-03-20T21:16:42.630Z,11.00
2019-03-20T21:19:39.273Z,11.00
2019-03-20T21:22:48.792Z,11.00
2019-03-20T21:25:21.840Z,10.90
2019-03-20T21:28:43.768Z,10.80
2019-03-20T21:31:25.170Z,10.70
2019-03-20T21:34:27.138Z,10.70
2019-03-20T21:37:41.751Z,10.60
2019-03-20T21:40:15.096Z,10.60
2019-03-20T21:43:22.112Z,10.60
2019-03-20T21:46:42.457Z,10.50
2019-03-20T21:49:15.368Z,10.50
2019-03-20T21:51:47.061Z,10.60
2019-03-20T21:54:53.319Z,10.50
2019-03-20T21:58:14.244Z,10.50
2019-03-20T22:01:26.981Z,10.40
2019-03-20T22:03:58.929Z,10.40
2019-03-20T22:07:05.732Z,10.40
2019-03-20T22:10:14.196Z,10.40
2019-03-20T22:13:17.835Z,10.40
2019-03-20T22:16:28.920Z,10.40
2019-03-20T22:19:44.453Z,10.40
2019-03-20T22:22:58.964Z,10.50
2019-03-20T22:25:58.468Z,10.50
2019-03-20T22:29:29.196Z,10.50
2019-03-20T22:32:50.263Z,10.40
2019-03-20T22:35:43.118Z,10.40
2019-03-20T22:38:42.427Z,10.30
2019-03-20T22:41:37.454Z,10.30
2019-03-20T22:44:09.148Z,10.30
2019-03-20T22:47:21.371Z,10.20
2019-03-20T22:50:18.940Z,10.20
2019-03-20T22:53:49.476Z,10.10
2019-03-20T22:56:56.572Z,10.00
2019-03-20T22:59:32.032Z,10.00
2019-03-20T23:02:33.963Z,9.90
2019-03-20T23:05:07.435Z,9.90
2019-03-20T23:07:39.119Z,9.90
2019-03-20T23:10:12.975Z,9.90
2019-03-20T23:12:44.755Z,9.90
2019-03-20T23:15:17.530Z,9.90
2019-03-20T23:17:49.210Z,9.80
2019-03-20T23:20:23.080Z,9.80
2019-03-20T23:22:55.073Z,9.70
2019-03-20T23:25:26.838Z,9.70
2019-03-20T23:27:59.591Z,9.70
2019-03-20T23:30:31.579Z,9.70
2019-03-20T23:33:03.248Z,9.70
2019-03-20T23:35:34.936Z,9.70
2019-03-20T23:38:06.620Z,9.70
2019-03-20T23:40:42.456Z,9.60
2019-03-20T23:43:15.748Z,9.60
2019-03-20T23:45:47.194Z,9.50
2019-03-20T23:48:40.650Z,9.50
2019-03-20T23:51:14.403Z,9.50
2019-03-20T23:53:48.993Z,9.40
2019-03-20T23:56:20.451Z,9.40
2019-03-20T23:58:52.128Z,9.40
